TOM888 LEZL-LFKB
Flight info
| Callsign | TOM888 |
|---|---|
| Flight time | 2h 4m |
| Altitude | 38000 |
| Route | BUDIT M445 SOPET M985 BCN N870 DIBER DCT STP A3 MERLU |
| Aircraft | B738/M-SDE2E3FGHIRWXY/LB1 |
Departure
| Time | 2026-04-16 13:27 |
|---|---|
| Airport | Seville Airport (LEZL) |
Arrival
| Time | 2026-04-16 15:31 |
|---|---|
| Airport | Bastia-Poretta International airport (LFKB) |
| Time | Latitude | Longitude | Altitude | Speed | Heading |
|---|---|---|---|---|---|
| 2026-04-16 12:57 | 37.42278 | -5.89882 | 93 ft | 0 kts | 315° |
| 2026-04-16 13:19 | 37.42266 | -5.89868 | 94 ft | 4 kts | 313° |
| 2026-04-16 13:19 | 37.42247 | -5.89844 | 91 ft | 4 kts | 324° |
| 2026-04-16 13:19 | 37.42226 | -5.89829 | 92 ft | 4 kts | 306° |
| 2026-04-16 13:20 | 37.42225 | -5.89808 | 92 ft | 3 kts | 227° |
| 2026-04-16 13:20 | 37.42239 | -5.89790 | 91 ft | 3 kts | 225° |
| 2026-04-16 13:20 | 37.42241 | -5.89788 | 94 ft | 1 kts | 225° |
| 2026-04-16 13:22 | 37.42234 | -5.89796 | 92 ft | 4 kts | 224° |
| 2026-04-16 13:23 | 37.42178 | -5.89866 | 93 ft | 13 kts | 225° |
| 2026-04-16 13:23 | 37.42098 | -5.89965 | 94 ft | 18 kts | 224° |
| 2026-04-16 13:23 | 37.42011 | -5.90079 | 94 ft | 18 kts | 226° |
| 2026-04-16 13:23 | 37.41980 | -5.90220 | 94 ft | 17 kts | 269° |
| 2026-04-16 13:24 | 37.41980 | -5.90373 | 93 ft | 19 kts | 270° |
| 2026-04-16 13:24 | 37.41979 | -5.90494 | 93 ft | 22 kts | 270° |
| 2026-04-16 13:24 | 37.41978 | -5.90712 | 91 ft | 27 kts | 270° |
| 2026-04-16 13:24 | 37.41978 | -5.90946 | 90 ft | 26 kts | 270° |
| 2026-04-16 13:25 | 37.41976 | -5.91166 | 88 ft | 24 kts | 269° |
| 2026-04-16 13:25 | 37.41918 | -5.91312 | 90 ft | 19 kts | 187° |
| 2026-04-16 13:25 | 37.41825 | -5.91207 | 90 ft | 15 kts | 121° |
| 2026-04-16 13:25 | 37.41789 | -5.91137 | 90 ft | 9 kts | 96° |
| 2026-04-16 13:26 | 37.41788 | -5.91031 | 92 ft | 19 kts | 90° |
| 2026-04-16 13:26 | 37.41790 | -5.90561 | 95 ft | 89 kts | 90° |
| 2026-04-16 13:26 | 37.41794 | -5.89530 | 98 ft | 148 kts | 90° |
| 2026-04-16 13:26 | 37.41799 | -5.88052 | 284 ft | 180 kts | 89° |
| 2026-04-16 13:27 | 37.41803 | -5.86540 | 1141 ft | 171 kts | 89° |
| 2026-04-16 13:27 | 37.41821 | -5.85042 | 1878 ft | 173 kts | 89° |
| 2026-04-16 13:27 | 37.41841 | -5.83408 | 2240 ft | 204 kts | 89° |
| 2026-04-16 13:27 | 37.41885 | -5.81551 | 2604 ft | 224 kts | 82° |
| 2026-04-16 13:28 | 37.42206 | -5.79537 | 2805 ft | 251 kts | 78° |
| 2026-04-16 13:28 | 37.42569 | -5.77324 | 3435 ft | 263 kts | 78° |
| 2026-04-16 13:28 | 37.43039 | -5.75090 | 4275 ft | 266 kts | 70° |
| 2026-04-16 13:28 | 37.43764 | -5.72926 | 5107 ft | 271 kts | 66° |
| 2026-04-16 13:29 | 37.44560 | -5.70749 | 5918 ft | 275 kts | 66° |
| 2026-04-16 13:29 | 37.45372 | -5.68543 | 6716 ft | 280 kts | 66° |
| 2026-04-16 13:29 | 37.46187 | -5.66302 | 7526 ft | 283 kts | 67° |
| 2026-04-16 13:29 | 37.47003 | -5.64032 | 8325 ft | 287 kts | 66° |
| 2026-04-16 13:30 | 37.47822 | -5.61732 | 9149 ft | 289 kts | 66° |
| 2026-04-16 13:30 | 37.48636 | -5.59429 | 9918 ft | 294 kts | 66° |
| 2026-04-16 13:30 | 37.49471 | -5.57056 | 10544 ft | 303 kts | 66° |
| 2026-04-16 13:30 | 37.50357 | -5.54530 | 10714 ft | 328 kts | 66° |
| 2026-04-16 13:31 | 37.51309 | -5.51809 | 10901 ft | 350 kts | 66° |
| 2026-04-16 13:31 | 37.52310 | -5.48941 | 11296 ft | 363 kts | 66° |
| 2026-04-16 13:31 | 37.53334 | -5.45999 | 11901 ft | 369 kts | 66° |
| 2026-04-16 13:31 | 37.54370 | -5.43021 | 12573 ft | 373 kts | 66° |
| 2026-04-16 13:32 | 37.55410 | -5.40025 | 13285 ft | 376 kts | 66° |
| 2026-04-16 13:32 | 37.56467 | -5.36979 | 13946 ft | 382 kts | 66° |
| 2026-04-16 13:32 | 37.57521 | -5.33940 | 14599 ft | 385 kts | 66° |
| 2026-04-16 13:32 | 37.58596 | -5.30837 | 15284 ft | 388 kts | 66° |
| 2026-04-16 13:33 | 37.59679 | -5.27710 | 16014 ft | 390 kts | 66° |
| 2026-04-16 13:33 | 37.60655 | -5.24503 | 16671 ft | 395 kts | 77° |
| 2026-04-16 13:33 | 37.60971 | -5.21058 | 17342 ft | 397 kts | 86° |
| 2026-04-16 13:33 | 37.61178 | -5.17571 | 18017 ft | 401 kts | 86° |
| 2026-04-16 13:34 | 37.61392 | -5.14048 | 18623 ft | 405 kts | 86° |
| 2026-04-16 13:34 | 37.61617 | -5.10488 | 19190 ft | 409 kts | 86° |
| 2026-04-16 13:34 | 37.61849 | -5.06948 | 19759 ft | 413 kts | 85° |
| 2026-04-16 13:34 | 37.62092 | -5.03326 | 20337 ft | 416 kts | 85° |
| 2026-04-16 13:35 | 37.62341 | -4.99675 | 20897 ft | 420 kts | 85° |
| 2026-04-16 13:35 | 37.62594 | -4.95992 | 21442 ft | 423 kts | 85° |
| 2026-04-16 13:35 | 37.62848 | -4.92280 | 21987 ft | 426 kts | 85° |
| 2026-04-16 13:35 | 37.63104 | -4.88538 | 22518 ft | 430 kts | 85° |
| 2026-04-16 13:36 | 37.63361 | -4.84767 | 23021 ft | 434 kts | 85° |
| 2026-04-16 13:36 | 37.63619 | -4.80957 | 23514 ft | 438 kts | 85° |
| 2026-04-16 13:36 | 37.63874 | -4.77166 | 23957 ft | 441 kts | 85° |
| 2026-04-16 13:36 | 37.64133 | -4.73294 | 24378 ft | 444 kts | 85° |
| 2026-04-16 13:37 | 37.64393 | -4.69398 | 24809 ft | 447 kts | 85° |
| 2026-04-16 13:37 | 37.64653 | -4.65476 | 25210 ft | 450 kts | 85° |
| 2026-04-16 13:37 | 37.64913 | -4.61532 | 25612 ft | 453 kts | 85° |
| 2026-04-16 13:37 | 37.65173 | -4.57558 | 26002 ft | 456 kts | 84° |
| 2026-04-16 13:38 | 37.65435 | -4.53557 | 26391 ft | 459 kts | 84° |
| 2026-04-16 13:38 | 37.65696 | -4.49532 | 26769 ft | 462 kts | 84° |
| 2026-04-16 13:38 | 37.65954 | -4.45535 | 27131 ft | 464 kts | 84° |
| 2026-04-16 13:38 | 37.66216 | -4.41459 | 27480 ft | 467 kts | 84° |
| 2026-04-16 13:39 | 37.66478 | -4.37362 | 27835 ft | 470 kts | 84° |
| 2026-04-16 13:39 | 37.66740 | -4.33236 | 28183 ft | 473 kts | 84° |
| 2026-04-16 13:39 | 37.67002 | -4.29086 | 28523 ft | 476 kts | 84° |
| 2026-04-16 13:39 | 37.67264 | -4.24912 | 28858 ft | 478 kts | 84° |
| 2026-04-16 13:40 | 37.67526 | -4.20714 | 29173 ft | 481 kts | 84° |
| 2026-04-16 13:40 | 37.67789 | -4.16493 | 29491 ft | 484 kts | 84° |
| 2026-04-16 13:40 | 37.68047 | -4.12311 | 29802 ft | 486 kts | 84° |
| 2026-04-16 13:40 | 37.68308 | -4.08054 | 30200 ft | 486 kts | 84° |
| 2026-04-16 13:41 | 37.68566 | -4.03805 | 30628 ft | 484 kts | 84° |
| 2026-04-16 13:41 | 37.68823 | -3.99574 | 31064 ft | 482 kts | 84° |
| 2026-04-16 13:41 | 37.69076 | -3.95359 | 31458 ft | 481 kts | 84° |
| 2026-04-16 13:41 | 37.69329 | -3.91147 | 31812 ft | 481 kts | 84° |
| 2026-04-16 13:42 | 37.69580 | -3.86937 | 32163 ft | 481 kts | 84° |
| 2026-04-16 13:42 | 37.69828 | -3.82738 | 32551 ft | 479 kts | 84° |
| 2026-04-16 13:42 | 37.70072 | -3.78598 | 32902 ft | 479 kts | 84° |
| 2026-04-16 13:42 | 37.70318 | -3.74395 | 33186 ft | 481 kts | 84° |
| 2026-04-16 13:43 | 37.70563 | -3.70185 | 33531 ft | 480 kts | 84° |
| 2026-04-16 13:43 | 37.70806 | -3.65984 | 33931 ft | 479 kts | 84° |
| 2026-04-16 13:43 | 37.71047 | -3.61796 | 34305 ft | 478 kts | 84° |
| 2026-04-16 13:43 | 37.71285 | -3.57618 | 34582 ft | 478 kts | 84° |
| 2026-04-16 13:44 | 37.71522 | -3.53429 | 34821 ft | 479 kts | 84° |
| 2026-04-16 13:44 | 37.71758 | -3.49232 | 35052 ft | 479 kts | 84° |
| 2026-04-16 13:44 | 37.71993 | -3.45032 | 35327 ft | 479 kts | 84° |
| 2026-04-16 13:44 | 37.72223 | -3.40893 | 35594 ft | 479 kts | 84° |
| 2026-04-16 13:45 | 37.72455 | -3.36683 | 35723 ft | 482 kts | 84° |
| 2026-04-16 13:45 | 37.72687 | -3.32459 | 35949 ft | 483 kts | 84° |
| 2026-04-16 13:45 | 37.72917 | -3.28233 | 36247 ft | 482 kts | 84° |
| 2026-04-16 13:45 | 37.73145 | -3.24016 | 36551 ft | 481 kts | 84° |
| 2026-04-16 13:46 | 37.73372 | -3.19801 | 36789 ft | 481 kts | 84° |
| 2026-04-16 13:46 | 37.73598 | -3.15578 | 37004 ft | 482 kts | 84° |
| 2026-04-16 13:46 | 37.73822 | -3.11351 | 37247 ft | 482 kts | 84° |
| 2026-04-16 13:46 | 37.74045 | -3.07127 | 37525 ft | 481 kts | 84° |
| 2026-04-16 13:47 | 37.74262 | -3.02971 | 37797 ft | 481 kts | 84° |
| 2026-04-16 13:47 | 37.74482 | -2.98749 | 37950 ft | 483 kts | 84° |
| 2026-04-16 13:47 | 37.74700 | -2.94519 | 38104 ft | 481 kts | 84° |
| 2026-04-16 13:48 | 37.75134 | -2.86064 | 38184 ft | 484 kts | 84° |
| 2026-04-16 13:48 | 37.75538 | -2.81857 | 38158 ft | 481 kts | 70° |
| 2026-04-16 13:48 | 37.76818 | -2.78021 | 38222 ft | 471 kts | 56° |
| 2026-04-16 13:48 | 37.78758 | -2.74734 | 38203 ft | 464 kts | 42° |
| 2026-04-16 13:49 | 37.80964 | -2.71842 | 38202 ft | 463 kts | 41° |
| 2026-04-16 13:49 | 37.85495 | -2.66035 | 38228 ft | 465 kts | 41° |
| 2026-04-16 13:50 | 37.89993 | -2.60139 | 38206 ft | 466 kts | 41° |
| 2026-04-16 13:50 | 37.94464 | -2.54184 | 38211 ft | 466 kts | 41° |
| 2026-04-16 13:51 | 37.98907 | -2.48261 | 38201 ft | 466 kts | 41° |
| 2026-04-16 13:51 | 38.03371 | -2.42299 | 38211 ft | 466 kts | 41° |
| 2026-04-16 13:52 | 38.07832 | -2.36328 | 38207 ft | 466 kts | 41° |
| 2026-04-16 13:52 | 38.12279 | -2.30363 | 38215 ft | 465 kts | 41° |
| 2026-04-16 13:53 | 38.16717 | -2.24399 | 38223 ft | 464 kts | 41° |
| 2026-04-16 13:53 | 38.21107 | -2.18465 | 38210 ft | 464 kts | 43° |
| 2026-04-16 13:54 | 38.25173 | -2.12063 | 38225 ft | 466 kts | 47° |
| 2026-04-16 13:54 | 38.29098 | -2.05510 | 38210 ft | 465 kts | 47° |
| 2026-04-16 13:55 | 38.33062 | -1.99024 | 38220 ft | 464 kts | 46° |
| 2026-04-16 13:55 | 38.37018 | -1.92599 | 38209 ft | 464 kts | 46° |
| 2026-04-16 13:56 | 38.41000 | -1.86134 | 38224 ft | 463 kts | 46° |
| 2026-04-16 13:56 | 38.44977 | -1.79669 | 38206 ft | 463 kts | 46° |
| 2026-04-16 13:57 | 38.48951 | -1.73193 | 38209 ft | 463 kts | 46° |
| 2026-04-16 13:57 | 38.52891 | -1.66758 | 38215 ft | 463 kts | 46° |
| 2026-04-16 13:58 | 38.58829 | -1.57034 | 38213 ft | 463 kts | 46° |
| 2026-04-16 13:58 | 38.62783 | -1.50542 | 38227 ft | 463 kts | 46° |
| 2026-04-16 13:59 | 38.66734 | -1.44043 | 38223 ft | 463 kts | 46° |
| 2026-04-16 13:59 | 38.70655 | -1.37580 | 38209 ft | 463 kts | 46° |
| 2026-04-16 14:00 | 38.74591 | -1.31080 | 38219 ft | 461 kts | 46° |
| 2026-04-16 14:00 | 38.78514 | -1.24588 | 38229 ft | 460 kts | 46° |
| 2026-04-16 14:01 | 38.82427 | -1.18098 | 38201 ft | 460 kts | 46° |
| 2026-04-16 14:01 | 38.86335 | -1.11604 | 38210 ft | 459 kts | 46° |
| 2026-04-16 14:02 | 38.90206 | -1.05157 | 38214 ft | 459 kts | 47° |
| 2026-04-16 14:02 | 38.94094 | -0.98668 | 38196 ft | 458 kts | 47° |
| 2026-04-16 14:03 | 38.97976 | -0.92177 | 38188 ft | 458 kts | 47° |
| 2026-04-16 14:03 | 39.01845 | -0.85692 | 38190 ft | 457 kts | 47° |
| 2026-04-16 14:04 | 39.05680 | -0.79258 | 38188 ft | 456 kts | 46° |
| 2026-04-16 14:04 | 39.10105 | -0.73581 | 38200 ft | 446 kts | 34° |
| 2026-04-16 14:05 | 39.14937 | -0.68584 | 38184 ft | 446 kts | 34° |
| 2026-04-16 14:05 | 39.19751 | -0.63536 | 38184 ft | 446 kts | 34° |
| 2026-04-16 14:06 | 39.24530 | -0.58437 | 38188 ft | 446 kts | 35° |
| 2026-04-16 14:06 | 39.29284 | -0.53365 | 38185 ft | 446 kts | 33° |
| 2026-04-16 14:07 | 39.34207 | -0.48533 | 38187 ft | 444 kts | 31° |
| 2026-04-16 14:07 | 39.39188 | -0.43791 | 38189 ft | 445 kts | 32° |
| 2026-04-16 14:08 | 39.44159 | -0.39003 | 38191 ft | 446 kts | 32° |
| 2026-04-16 14:08 | 39.49085 | -0.34209 | 38188 ft | 446 kts | 32° |
| 2026-04-16 14:09 | 39.54045 | -0.29361 | 38190 ft | 447 kts | 32° |
| 2026-04-16 14:09 | 39.59009 | -0.24503 | 38197 ft | 447 kts | 33° |
| 2026-04-16 14:10 | 39.63976 | -0.19633 | 38187 ft | 448 kts | 33° |
| 2026-04-16 14:10 | 39.68941 | -0.14757 | 38188 ft | 448 kts | 33° |
| 2026-04-16 14:11 | 39.73876 | -0.09900 | 38199 ft | 448 kts | 33° |
| 2026-04-16 14:11 | 39.78844 | -0.05002 | 38197 ft | 448 kts | 33° |
| 2026-04-16 14:12 | 39.83779 | -0.00042 | 38199 ft | 450 kts | 38° |
| 2026-04-16 14:12 | 39.88137 | 0.05867 | 38198 ft | 453 kts | 44° |
| 2026-04-16 14:13 | 39.92347 | 0.11905 | 38199 ft | 453 kts | 44° |
| 2026-04-16 14:13 | 39.96630 | 0.17918 | 38198 ft | 453 kts | 43° |
| 2026-04-16 14:14 | 40.00927 | 0.23914 | 38198 ft | 452 kts | 43° |
| 2026-04-16 14:14 | 40.05223 | 0.29910 | 38198 ft | 452 kts | 44° |
| 2026-04-16 14:15 | 40.09513 | 0.35907 | 38203 ft | 452 kts | 44° |
| 2026-04-16 14:15 | 40.13771 | 0.41873 | 38211 ft | 452 kts | 44° |
| 2026-04-16 14:16 | 40.18050 | 0.47883 | 38195 ft | 451 kts | 44° |
| 2026-04-16 14:16 | 40.22317 | 0.53888 | 38193 ft | 450 kts | 44° |
| 2026-04-16 14:17 | 40.26577 | 0.59891 | 38198 ft | 450 kts | 44° |
| 2026-04-16 14:17 | 40.30797 | 0.65855 | 38191 ft | 449 kts | 44° |
| 2026-04-16 14:18 | 40.35034 | 0.71855 | 38193 ft | 448 kts | 44° |
| 2026-04-16 14:18 | 40.39263 | 0.77857 | 38210 ft | 448 kts | 44° |
| 2026-04-16 14:19 | 40.43487 | 0.83863 | 38196 ft | 447 kts | 44° |
| 2026-04-16 14:19 | 40.47671 | 0.89826 | 38181 ft | 447 kts | 45° |
| 2026-04-16 14:20 | 40.51873 | 0.95825 | 38188 ft | 446 kts | 45° |
| 2026-04-16 14:20 | 40.56064 | 1.01820 | 38187 ft | 445 kts | 45° |
| 2026-04-16 14:21 | 40.60239 | 1.07818 | 38184 ft | 444 kts | 45° |
| 2026-04-16 14:21 | 40.64407 | 1.13823 | 38185 ft | 444 kts | 45° |
| 2026-04-16 14:22 | 40.68542 | 1.19789 | 38188 ft | 444 kts | 45° |
| 2026-04-16 14:22 | 40.72702 | 1.25798 | 38188 ft | 443 kts | 45° |
| 2026-04-16 14:23 | 40.76855 | 1.31797 | 38192 ft | 443 kts | 45° |
| 2026-04-16 14:23 | 40.81004 | 1.37802 | 38190 ft | 442 kts | 45° |
| 2026-04-16 14:24 | 40.85116 | 1.43767 | 38187 ft | 442 kts | 45° |
| 2026-04-16 14:24 | 40.89247 | 1.49778 | 38188 ft | 442 kts | 45° |
| 2026-04-16 14:25 | 40.93373 | 1.55804 | 38199 ft | 442 kts | 45° |
| 2026-04-16 14:25 | 40.97496 | 1.61838 | 38185 ft | 442 kts | 45° |
| 2026-04-16 14:26 | 41.01583 | 1.67831 | 38188 ft | 441 kts | 45° |
| 2026-04-16 14:26 | 41.05694 | 1.73869 | 38187 ft | 441 kts | 45° |
| 2026-04-16 14:27 | 41.09803 | 1.79906 | 38191 ft | 441 kts | 45° |
| 2026-04-16 14:27 | 41.13906 | 1.85943 | 38190 ft | 441 kts | 45° |
| 2026-04-16 14:28 | 41.18005 | 1.91990 | 38198 ft | 441 kts | 45° |
| 2026-04-16 14:28 | 41.22074 | 1.98005 | 38185 ft | 441 kts | 45° |
| 2026-04-16 14:29 | 41.26166 | 2.04066 | 38186 ft | 441 kts | 45° |
| 2026-04-16 14:29 | 41.30193 | 2.10216 | 38177 ft | 443 kts | 51° |
| 2026-04-16 14:30 | 41.33155 | 2.17443 | 38189 ft | 447 kts | 62° |
| 2026-04-16 14:30 | 41.35716 | 2.25000 | 38190 ft | 448 kts | 63° |
| 2026-04-16 14:31 | 41.38271 | 2.32506 | 38202 ft | 448 kts | 62° |
| 2026-04-16 14:31 | 41.40874 | 2.40062 | 38187 ft | 449 kts | 62° |
| 2026-04-16 14:32 | 41.43485 | 2.47621 | 38185 ft | 449 kts | 62° |
| 2026-04-16 14:32 | 41.46092 | 2.55181 | 38185 ft | 449 kts | 62° |
| 2026-04-16 14:33 | 41.48694 | 2.62752 | 38182 ft | 449 kts | 62° |
| 2026-04-16 14:33 | 41.51272 | 2.70275 | 38191 ft | 449 kts | 62° |
| 2026-04-16 14:34 | 41.53859 | 2.77845 | 38171 ft | 448 kts | 62° |
| 2026-04-16 14:34 | 41.56438 | 2.85413 | 38167 ft | 447 kts | 62° |
| 2026-04-16 14:35 | 41.59007 | 2.92972 | 38181 ft | 446 kts | 62° |
| 2026-04-16 14:35 | 41.61549 | 3.00471 | 38184 ft | 446 kts | 62° |
| 2026-04-16 14:36 | 41.64100 | 3.08021 | 38201 ft | 445 kts | 62° |
| 2026-04-16 14:36 | 41.66645 | 3.15568 | 38181 ft | 445 kts | 62° |
| 2026-04-16 14:37 | 41.69177 | 3.23109 | 38177 ft | 444 kts | 62° |
| 2026-04-16 14:37 | 41.71674 | 3.30604 | 38183 ft | 443 kts | 63° |
| 2026-04-16 14:38 | 41.74179 | 3.38137 | 38181 ft | 443 kts | 63° |
| 2026-04-16 14:38 | 41.76684 | 3.45669 | 38179 ft | 442 kts | 63° |
| 2026-04-16 14:39 | 41.79184 | 3.53202 | 38175 ft | 442 kts | 63° |
| 2026-04-16 14:39 | 41.81662 | 3.60691 | 38168 ft | 442 kts | 63° |
| 2026-04-16 14:40 | 41.84151 | 3.68237 | 38171 ft | 443 kts | 63° |
| 2026-04-16 14:40 | 41.86639 | 3.75799 | 38176 ft | 443 kts | 63° |
| 2026-04-16 14:41 | 41.89124 | 3.83376 | 38183 ft | 444 kts | 63° |
| 2026-04-16 14:41 | 41.91607 | 3.90966 | 38170 ft | 444 kts | 63° |
| 2026-04-16 14:42 | 41.94072 | 3.98512 | 38166 ft | 444 kts | 63° |
| 2026-04-16 14:42 | 41.96553 | 4.06118 | 38169 ft | 444 kts | 63° |
| 2026-04-16 14:43 | 41.99029 | 4.13730 | 38168 ft | 444 kts | 63° |
| 2026-04-16 14:43 | 42.01498 | 4.21344 | 38179 ft | 444 kts | 63° |
| 2026-04-16 14:44 | 42.03946 | 4.28913 | 38159 ft | 444 kts | 63° |
| 2026-04-16 14:44 | 42.06402 | 4.36526 | 38156 ft | 443 kts | 63° |
| 2026-04-16 14:45 | 42.09159 | 4.43886 | 38145 ft | 437 kts | 51° |
| 2026-04-16 14:45 | 42.12733 | 4.50475 | 38154 ft | 435 kts | 50° |
| 2026-04-16 14:46 | 42.16307 | 4.56987 | 38155 ft | 435 kts | 50° |
| 2026-04-16 14:46 | 42.19872 | 4.63568 | 38152 ft | 435 kts | 51° |
| 2026-04-16 14:47 | 42.23418 | 4.70175 | 38148 ft | 435 kts | 51° |
| 2026-04-16 14:47 | 42.26952 | 4.76790 | 38145 ft | 434 kts | 51° |
| 2026-04-16 14:48 | 42.30453 | 4.83359 | 38143 ft | 434 kts | 51° |
| 2026-04-16 14:48 | 42.33975 | 4.89980 | 38144 ft | 434 kts | 51° |
| 2026-04-16 14:49 | 42.37494 | 4.96609 | 38159 ft | 434 kts | 51° |
| 2026-04-16 14:49 | 42.41010 | 5.03247 | 38147 ft | 434 kts | 51° |
| 2026-04-16 14:50 | 42.44502 | 5.09855 | 38142 ft | 434 kts | 51° |
| 2026-04-16 14:50 | 42.48013 | 5.16514 | 38146 ft | 434 kts | 51° |
| 2026-04-16 14:51 | 42.51518 | 5.23177 | 38138 ft | 434 kts | 51° |
| 2026-04-16 14:51 | 42.55022 | 5.29850 | 38141 ft | 434 kts | 51° |
| 2026-04-16 14:53 | 42.68965 | 5.56559 | 38132 ft | 433 kts | 51° |
| 2026-04-16 14:54 | 42.72414 | 5.63202 | 38141 ft | 433 kts | 51° |
| 2026-04-16 14:54 | 42.75880 | 5.69894 | 38130 ft | 432 kts | 51° |
| 2026-04-16 14:55 | 42.79341 | 5.76589 | 38128 ft | 432 kts | 52° |
| 2026-04-16 14:55 | 42.82792 | 5.83283 | 38127 ft | 432 kts | 52° |
| 2026-04-16 14:56 | 42.86240 | 5.89983 | 38134 ft | 432 kts | 52° |
| 2026-04-16 14:56 | 42.89659 | 5.96645 | 38128 ft | 432 kts | 52° |
| 2026-04-16 14:57 | 42.93098 | 6.03358 | 38128 ft | 432 kts | 52° |
| 2026-04-16 14:57 | 42.96533 | 6.10079 | 38143 ft | 432 kts | 52° |
| 2026-04-16 14:58 | 43.01663 | 6.20147 | 38135 ft | 433 kts | 52° |
| 2026-04-16 14:59 | 43.05096 | 6.26901 | 38126 ft | 433 kts | 52° |
| 2026-04-16 14:59 | 43.08527 | 6.33670 | 38130 ft | 433 kts | 52° |
| 2026-04-16 15:00 | 43.11956 | 6.40450 | 38122 ft | 433 kts | 52° |
| 2026-04-16 15:00 | 43.15384 | 6.47242 | 38113 ft | 433 kts | 52° |
| 2026-04-16 15:01 | 43.18785 | 6.53995 | 38104 ft | 434 kts | 52° |
| 2026-04-16 15:01 | 43.20317 | 6.57566 | 38091 ft | 439 kts | 65° |
| 2026-04-16 15:01 | 43.21165 | 6.61603 | 38120 ft | 444 kts | 77° |
| 2026-04-16 15:01 | 43.21367 | 6.65851 | 38102 ft | 451 kts | 90° |
| 2026-04-16 15:02 | 43.20966 | 6.70128 | 38126 ft | 453 kts | 95° |
| 2026-04-16 15:02 | 43.19907 | 6.78664 | 38108 ft | 455 kts | 96° |
| 2026-04-16 15:03 | 43.18887 | 6.87156 | 38124 ft | 455 kts | 96° |
| 2026-04-16 15:03 | 43.17914 | 6.95722 | 38112 ft | 455 kts | 95° |
| 2026-04-16 15:04 | 43.16944 | 7.04291 | 38119 ft | 455 kts | 95° |
| 2026-04-16 15:04 | 43.15958 | 7.12863 | 38120 ft | 456 kts | 96° |
| 2026-04-16 15:05 | 43.14959 | 7.21435 | 38118 ft | 456 kts | 96° |
| 2026-04-16 15:05 | 43.13960 | 7.29954 | 37884 ft | 460 kts | 96° |
| 2026-04-16 15:05 | 43.13446 | 7.34312 | 37445 ft | 466 kts | 96° |
| 2026-04-16 15:06 | 43.12913 | 7.38693 | 37295 ft | 466 kts | 96° |
| 2026-04-16 15:06 | 43.12358 | 7.43036 | 37448 ft | 459 kts | 97° |
| 2026-04-16 15:06 | 43.11779 | 7.47297 | 37690 ft | 452 kts | 97° |
| 2026-04-16 15:07 | 43.10530 | 7.55688 | 37569 ft | 452 kts | 98° |
| 2026-04-16 15:07 | 43.09853 | 7.59862 | 37240 ft | 459 kts | 99° |
| 2026-04-16 15:07 | 43.09128 | 7.64137 | 36972 ft | 463 kts | 101° |
| 2026-04-16 15:08 | 43.07589 | 7.72654 | 37083 ft | 456 kts | 102° |
| 2026-04-16 15:08 | 43.06782 | 7.76815 | 37262 ft | 451 kts | 102° |
| 2026-04-16 15:08 | 43.05944 | 7.80947 | 37265 ft | 450 kts | 103° |
| 2026-04-16 15:08 | 43.05075 | 7.85060 | 37060 ft | 453 kts | 103° |
| 2026-04-16 15:09 | 43.04161 | 7.89214 | 36784 ft | 458 kts | 104° |
| 2026-04-16 15:09 | 43.03218 | 7.93331 | 36630 ft | 460 kts | 105° |
| 2026-04-16 15:09 | 43.02228 | 7.97483 | 36685 ft | 458 kts | 106° |
| 2026-04-16 15:09 | 43.01216 | 8.01582 | 36825 ft | 453 kts | 107° |
| 2026-04-16 15:10 | 43.00192 | 8.05630 | 36888 ft | 450 kts | 107° |
| 2026-04-16 15:10 | 42.98071 | 8.13715 | 36575 ft | 455 kts | 108° |
| 2026-04-16 15:10 | 42.96964 | 8.17785 | 36403 ft | 458 kts | 109° |
| 2026-04-16 15:11 | 42.95831 | 8.21852 | 36355 ft | 458 kts | 109° |
| 2026-04-16 15:11 | 42.93525 | 8.29810 | 36553 ft | 450 kts | 110° |
| 2026-04-16 15:12 | 42.91124 | 8.37695 | 36442 ft | 451 kts | 111° |
| 2026-04-16 15:12 | 42.89885 | 8.41648 | 36265 ft | 455 kts | 112° |
| 2026-04-16 15:12 | 42.88621 | 8.45611 | 36152 ft | 456 kts | 112° |
| 2026-04-16 15:13 | 42.86034 | 8.53472 | 36240 ft | 451 kts | 113° |
| 2026-04-16 15:13 | 42.83399 | 8.61125 | 36263 ft | 449 kts | 114° |
| 2026-04-16 15:13 | 42.82031 | 8.64961 | 36128 ft | 451 kts | 115° |
| 2026-04-16 15:14 | 42.80629 | 8.68802 | 35994 ft | 454 kts | 115° |
| 2026-04-16 15:14 | 42.77741 | 8.76441 | 35992 ft | 452 kts | 117° |
| 2026-04-16 15:15 | 42.74780 | 8.83923 | 36096 ft | 448 kts | 118° |
| 2026-04-16 15:15 | 42.71731 | 8.91270 | 35905 ft | 451 kts | 119° |
| 2026-04-16 15:16 | 42.68530 | 8.98626 | 35795 ft | 452 kts | 120° |
| 2026-04-16 15:16 | 42.65229 | 9.05848 | 35902 ft | 448 kts | 121° |
| 2026-04-16 15:17 | 42.61831 | 9.12926 | 35858 ft | 448 kts | 123° |
| 2026-04-16 15:17 | 42.58324 | 9.19868 | 35747 ft | 450 kts | 124° |
| 2026-04-16 15:18 | 42.54656 | 9.26717 | 35799 ft | 447 kts | 126° |
| 2026-04-16 15:18 | 42.50816 | 9.33346 | 35791 ft | 447 kts | 128° |
| 2026-04-16 15:19 | 42.46850 | 9.39852 | 35690 ft | 448 kts | 129° |
| 2026-04-16 15:19 | 42.42816 | 9.46221 | 35681 ft | 448 kts | 130° |
| 2026-04-16 15:20 | 42.38676 | 9.52498 | 35736 ft | 446 kts | 131° |
| 2026-04-16 15:20 | 42.36596 | 9.55564 | 35635 ft | 437 kts | 131° |
| 2026-04-16 15:20 | 42.34578 | 9.58615 | 35103 ft | 435 kts | 129° |
| 2026-04-16 15:20 | 42.32598 | 9.61806 | 32660 ft | 463 kts | 128° |
| 2026-04-16 15:21 | 42.30420 | 9.65315 | 30835 ft | 496 kts | 128° |
| 2026-04-16 15:21 | 42.28169 | 9.68780 | 30488 ft | 484 kts | 134° |
| 2026-04-16 15:21 | 42.25536 | 9.71386 | 30374 ft | 471 kts | 151° |
| 2026-04-16 15:21 | 42.22478 | 9.72833 | 29872 ft | 466 kts | 169° |
| 2026-04-16 15:22 | 42.19234 | 9.73034 | 28912 ft | 470 kts | 186° |
| 2026-04-16 15:22 | 42.16037 | 9.72114 | 27826 ft | 474 kts | 201° |
| 2026-04-16 15:22 | 42.13170 | 9.69923 | 26390 ft | 481 kts | 223° |
| 2026-04-16 15:22 | 42.11172 | 9.66282 | 24425 ft | 493 kts | 249° |
| 2026-04-16 15:23 | 42.10208 | 9.61839 | 20491 ft | 510 kts | 266° |
| 2026-04-16 15:23 | 42.11227 | 9.57365 | 18267 ft | 503 kts | 315° |
| 2026-04-16 15:23 | 42.14049 | 9.55057 | 15245 ft | 472 kts | 342° |
| 2026-04-16 15:23 | 42.17284 | 9.54544 | 9283 ft | 486 kts | 8° |
| 2026-04-16 15:24 | 42.20760 | 9.55677 | 6874 ft | 497 kts | 12° |
| 2026-04-16 15:24 | 42.23931 | 9.56395 | 6768 ft | 428 kts | 5° |
| 2026-04-16 15:24 | 42.26601 | 9.56454 | 6443 ft | 346 kts | 359° |
| 2026-04-16 15:24 | 42.28857 | 9.56301 | 5475 ft | 304 kts | 356° |
| 2026-04-16 15:25 | 42.30877 | 9.56057 | 4202 ft | 282 kts | 354° |
| 2026-04-16 15:25 | 42.32696 | 9.55746 | 3936 ft | 232 kts | 352° |
| 2026-04-16 15:25 | 42.34040 | 9.55478 | 4091 ft | 166 kts | 352° |
| 2026-04-16 15:25 | 42.35057 | 9.55273 | 3788 ft | 147 kts | 352° |
| 2026-04-16 15:26 | 42.36052 | 9.55092 | 3447 ft | 143 kts | 354° |
| 2026-04-16 15:26 | 42.37056 | 9.54949 | 3108 ft | 147 kts | 355° |
| 2026-04-16 15:26 | 42.38072 | 9.54798 | 2864 ft | 147 kts | 353° |
| 2026-04-16 15:26 | 42.39090 | 9.54611 | 2594 ft | 148 kts | 353° |
| 2026-04-16 15:27 | 42.40104 | 9.54396 | 2335 ft | 146 kts | 352° |
| 2026-04-16 15:27 | 42.41097 | 9.54159 | 2084 ft | 145 kts | 351° |
| 2026-04-16 15:27 | 42.42076 | 9.53885 | 1822 ft | 144 kts | 347° |
| 2026-04-16 15:27 | 42.43035 | 9.53548 | 1638 ft | 142 kts | 346° |
| 2026-04-16 15:28 | 42.43976 | 9.53189 | 1445 ft | 138 kts | 344° |
| 2026-04-16 15:28 | 42.44869 | 9.52808 | 1328 ft | 135 kts | 343° |
| 2026-04-16 15:28 | 42.45763 | 9.52425 | 1257 ft | 134 kts | 343° |
| 2026-04-16 15:28 | 42.46651 | 9.52050 | 1211 ft | 134 kts | 343° |
| 2026-04-16 15:29 | 42.47544 | 9.51661 | 1174 ft | 136 kts | 344° |
| 2026-04-16 15:29 | 42.48450 | 9.51292 | 1122 ft | 137 kts | 343° |
| 2026-04-16 15:29 | 42.49337 | 9.50908 | 1016 ft | 135 kts | 344° |
| 2026-04-16 15:29 | 42.50240 | 9.50535 | 875 ft | 136 kts | 342° |
| 2026-04-16 15:30 | 42.51141 | 9.50122 | 713 ft | 137 kts | 344° |
| 2026-04-16 15:30 | 42.52040 | 9.49750 | 546 ft | 132 kts | 344° |
| 2026-04-16 15:30 | 42.52909 | 9.49372 | 331 ft | 130 kts | 345° |
| 2026-04-16 15:30 | 42.53770 | 9.49004 | 179 ft | 130 kts | 345° |
| 2026-04-16 15:31 | 42.54621 | 9.48643 | 36 ft | 122 kts | 344° |
| 2026-04-16 15:31 | 42.55348 | 9.48351 | 36 ft | 97 kts | 342° |
| 2026-04-16 15:31 | 42.55792 | 9.48157 | 31 ft | 39 kts | 342° |
| 2026-04-16 15:31 | 42.55950 | 9.48071 | 24 ft | 19 kts | 309° |
| 2026-04-16 15:32 | 42.55940 | 9.47909 | 25 ft | 17 kts | 244° |
| 2026-04-16 15:32 | 42.55842 | 9.47876 | 30 ft | 15 kts | 163° |
| 2026-04-16 15:32 | 42.55734 | 9.47921 | 28 ft | 18 kts | 163° |
| 2026-04-16 15:32 | 42.55607 | 9.47975 | 31 ft | 20 kts | 163° |
| 2026-04-16 15:33 | 42.55466 | 9.48033 | 32 ft | 21 kts | 163° |
| 2026-04-16 15:33 | 42.55321 | 9.48095 | 33 ft | 22 kts | 162° |
| 2026-04-16 15:33 | 42.55178 | 9.48156 | 34 ft | 21 kts | 162° |
| 2026-04-16 15:33 | 42.55041 | 9.48213 | 34 ft | 20 kts | 163° |
| 2026-04-16 15:34 | 42.54911 | 9.48245 | 34 ft | 17 kts | 166° |
| 2026-04-16 15:34 | 42.54855 | 9.48268 | 34 ft | 5 kts | 163° |
| 2026-04-16 15:34 | 42.54823 | 9.48282 | 34 ft | 5 kts | 162° |
| 2026-04-16 15:34 | 42.54800 | 9.48264 | 34 ft | 4 kts | 235° |
| 2026-04-16 15:35 | 42.54789 | 9.48226 | 34 ft | 5 kts | 252° |
| 2026-04-16 15:35 | 42.54781 | 9.48189 | 34 ft | 1 kts | 253° |
| 2026-04-16 15:52 | 42.54780 | 9.48187 | 34 ft | 0 kts | 253° |